sensor_id;sensor_type;location;lat;lon;timestamp;pressure;altitude;pressure_sealevel;temperature;humidity
77583;BME280;66726;52.388;9.986;2023-11-19T00:01:22;100283.16;;;5.46;100.00
77583;BME280;66726;52.388;9.986;2023-11-19T00:03:51;100289.31;;;5.47;100.00
77583;BME280;66726;52.388;9.986;2023-11-19T00:06:21;100278.53;;;5.48;100.00
77583;BME280;66726;52.388;9.986;2023-11-19T00:08:49;100272.25;;;5.49;100.00
77583;BME280;66726;52.388;9.986;2023-11-19T00:11:17;100254.50;;;5.50;100.00
77583;BME280;66726;52.388;9.986;2023-11-19T00:13:45;100254.34;;;5.51;100.00
77583;BME280;66726;52.388;9.986;2023-11-19T00:16:13;100250.88;;;5.51;100.00
77583;BME280;66726;52.388;9.986;2023-11-19T00:18:43;100250.72;;;5.52;100.00
77583;BME280;66726;52.388;9.986;2023-11-19T00:21:11;100242.63;;;5.54;100.00
77583;BME280;66726;52.388;9.986;2023-11-19T00:23:41;100229.34;;;5.54;100.00
77583;BME280;66726;52.388;9.986;2023-11-19T00:26:09;100214.94;;;5.56;100.00
77583;BME280;66726;52.388;9.986;2023-11-19T00:28:37;100201.69;;;5.56;100.00
77583;BME280;66726;52.388;9.986;2023-11-19T00:31:06;100193.72;;;5.56;100.00
77583;BME280;66726;52.388;9.986;2023-11-19T00:33:34;100187.44;;;5.57;100.00
77583;BME280;66726;52.388;9.986;2023-11-19T00:36:14;100188.13;;;5.59;100.00
77583;BME280;66726;52.388;9.986;2023-11-19T00:38:44;100195.09;;;5.60;100.00
77583;BME280;66726;52.388;9.986;2023-11-19T00:41:12;100187.81;;;5.62;100.00
77583;BME280;66726;52.388;9.986;2023-11-19T00:43:43;100201.81;;;5.65;100.00
77583;BME280;66726;52.388;9.986;2023-11-19T00:46:11;100196.50;;;5.65;100.00
77583;BME280;66726;52.388;9.986;2023-11-19T00:48:40;100170.75;;;5.65;100.00
77583;BME280;66726;52.388;9.986;2023-11-19T00:51:08;100176.78;;;5.67;100.00
77583;BME280;66726;52.388;9.986;2023-11-19T00:53:39;100185.59;;;5.68;100.00
77583;BME280;66726;52.388;9.986;2023-11-19T00:56:10;100166.00;;;5.69;100.00
77583;BME280;66726;52.388;9.986;2023-11-19T00:58:39;100158.75;;;5.71;100.00
77583;BME280;66726;52.388;9.986;2023-11-19T01:01:07;100160.44;;;5.72;100.00
77583;BME280;66726;52.388;9.986;2023-11-19T01:03:36;100151.16;;;5.76;100.00
77583;BME280;66726;52.388;9.986;2023-11-19T01:06:05;100148.38;;;5.77;100.00
77583;BME280;66726;52.388;9.986;2023-11-19T01:08:33;100157.19;;;5.78;100.00
77583;BME280;66726;52.388;9.986;2023-11-19T01:11:03;100149.06;;;5.79;100.00
77583;BME280;66726;52.388;9.986;2023-11-19T01:13:33;100136.63;;;5.80;100.00
77583;BME280;66726;52.388;9.986;2023-11-19T01:16:01;100125.72;;;5.83;100.00
77583;BME280;66726;52.388;9.986;2023-11-19T01:18:29;100117.59;;;5.84;100.00
77583;BME280;66726;52.388;9.986;2023-11-19T01:20:57;100114.81;;;5.86;100.00
77583;BME280;66726;52.388;9.986;2023-11-19T01:23:25;100095.25;;;5.87;100.00
77583;BME280;66726;52.388;9.986;2023-11-19T01:25:54;100102.78;;;5.91;100.00
77583;BME280;66726;52.388;9.986;2023-11-19T01:28:22;100099.53;;;5.97;100.00
77583;BME280;66726;52.388;9.986;2023-11-19T01:30:52;100097.44;;;6.01;100.00
77583;BME280;66726;52.388;9.986;2023-11-19T01:33:21;100100.03;;;6.10;100.00
77583;BME280;66726;52.388;9.986;2023-11-19T01:35:49;100096.25;;;6.13;100.00
77583;BME280;66726;52.388;9.986;2023-11-19T01:38:17;100106.06;;;6.13;100.00
77583;BME280;66726;52.388;9.986;2023-11-19T01:40:45;100095.97;;;6.16;100.00
77583;BME280;66726;52.388;9.986;2023-11-19T01:43:35;100089.75;;;6.25;100.00
77583;BME280;66726;52.388;9.986;2023-11-19T01:46:08;100085.53;;;6.32;100.00
77583;BME280;66726;52.388;9.986;2023-11-19T01:48:42;100079.91;;;6.35;100.00
77583;BME280;66726;52.388;9.986;2023-11-19T01:51:13;100070.66;;;6.39;100.00
77583;BME280;66726;52.388;9.986;2023-11-19T01:53:44;100071.50;;;6.40;100.00
77583;BME280;66726;52.388;9.986;2023-11-19T01:56:15;100060.00;;;6.39;100.00
77583;BME280;66726;52.388;9.986;2023-11-19T01:58:45;100059.03;;;6.40;100.00
77583;BME280;66726;52.388;9.986;2023-11-19T02:01:15;100058.03;;;6.41;100.00
77583;BME280;66726;52.388;9.986;2023-11-19T02:03:44;100049.38;;;6.39;100.00
77583;BME280;66726;52.388;9.986;2023-11-19T02:06:14;100041.47;;;6.47;100.00
77583;BME280;66726;52.388;9.986;2023-11-19T02:08:43;100031.91;;;6.54;100.00
77583;BME280;66726;52.388;9.986;2023-11-19T02:11:11;100026.56;;;6.54;100.00
77583;BME280;66726;52.388;9.986;2023-11-19T02:13:40;100035.25;;;6.56;100.00
77583;BME280;66726;52.388;9.986;2023-11-19T02:16:11;100034.66;;;6.62;100.00
77583;BME280;66726;52.388;9.986;2023-11-19T02:18:41;100034.66;;;6.62;100.00
77583;BME280;66726;52.388;9.986;2023-11-19T02:21:09;100032.13;;;6.61;100.00
77583;BME280;66726;52.388;9.986;2023-11-19T02:23:38;100020.69;;;6.60;100.00
77583;BME280;66726;52.388;9.986;2023-11-19T02:26:16;100018.69;;;6.62;100.00
77583;BME280;66726;52.388;9.986;2023-11-19T02:28:47;100011.69;;;6.61;100.00
77583;BME280;66726;52.388;9.986;2023-11-19T02:31:15;100010.03;;;6.60;100.00
77583;BME280;66726;52.388;9.986;2023-11-19T02:33:44;100003.72;;;6.61;100.00
77583;BME280;66726;52.388;9.986;2023-11-19T02:36:12;100010.03;;;6.60;100.00
77583;BME280;66726;52.388;9.986;2023-11-19T02:38:40;100010.03;;;6.60;100.00
77583;BME280;66726;52.388;9.986;2023-11-19T02:41:09;100001.06;;;6.61;100.00
77583;BME280;66726;52.388;9.986;2023-11-19T02:43:37;100003.41;;;6.64;100.00
77583;BME280;66726;52.388;9.986;2023-11-19T02:46:07;99999.09;;;6.63;100.00
77583;BME280;66726;52.388;9.986;2023-11-19T02:48:38;99994.44;;;6.66;100.00
77583;BME280;66726;52.388;9.986;2023-11-19T02:51:07;99986.31;;;6.67;100.00
77583;BME280;66726;52.388;9.986;2023-11-19T02:53:37;99988.97;;;6.67;100.00
77583;BME280;66726;52.388;9.986;2023-11-19T02:56:07;99969.66;;;6.65;100.00
77583;BME280;66726;52.388;9.986;2023-11-19T02:58:43;99965.56;;;6.71;100.00
77583;BME280;66726;52.388;9.986;2023-11-19T03:01:21;99950.66;;;6.78;100.00
77583;BME280;66726;52.388;9.986;2023-11-19T03:03:57;99954.44;;;6.75;100.00
77583;BME280;66726;52.388;9.986;2023-11-19T03:06:26;99955.66;;;6.81;100.00
77583;BME280;66726;52.388;9.986;2023-11-19T03:08:55;99938.56;;;6.83;100.00
77583;BME280;66726;52.388;9.986;2023-11-19T03:11:24;99950.19;;;6.82;100.00
77583;BME280;66726;52.388;9.986;2023-11-19T03:13:52;99946.06;;;6.88;100.00
77583;BME280;66726;52.388;9.986;2023-11-19T03:16:21;99937.47;;;6.94;100.00
77583;BME280;66726;52.388;9.986;2023-11-19T03:18:50;99917.00;;;6.94;100.00
77583;BME280;66726;52.388;9.986;2023-11-19T03:21:18;99924.81;;;6.96;100.00
77583;BME280;66726;52.388;9.986;2023-11-19T03:23:46;99927.34;;;6.97;100.00
77583;BME280;66726;52.388;9.986;2023-11-19T03:26:14;99928.84;;;7.00;100.00
77583;BME280;66726;52.388;9.986;2023-11-19T03:28:42;99924.50;;;6.99;100.00
77583;BME280;66726;52.388;9.986;2023-11-19T03:31:10;99927.38;;;7.05;100.00
77583;BME280;66726;52.388;9.986;2023-11-19T03:33:40;99908.75;;;7.05;100.00
77583;BME280;66726;52.388;9.986;2023-11-19T03:36:08;99920.75;;;7.09;100.00
77583;BME280;66726;52.388;9.986;2023-11-19T03:38:37;99910.47;;;7.14;100.00
77583;BME280;66726;52.388;9.986;2023-11-19T03:41:10;99924.63;;;7.15;100.00
77583;BME280;66726;52.388;9.986;2023-11-19T03:43:39;99912.50;;;7.21;100.00
77583;BME280;66726;52.388;9.986;2023-11-19T03:46:17;99909.00;;;7.20;100.00
77583;BME280;66726;52.388;9.986;2023-11-19T03:48:49;99920.00;;;7.25;100.00
77583;BME280;66726;52.388;9.986;2023-11-19T03:51:17;99922.34;;;7.28;100.00
77583;BME280;66726;52.388;9.986;2023-11-19T03:53:45;99907.38;;;7.27;100.00
77583;BME280;66726;52.388;9.986;2023-11-19T03:56:13;99900.59;;;7.41;100.00
77583;BME280;66726;52.388;9.986;2023-11-19T03:58:42;99902.78;;;7.45;100.00
77583;BME280;66726;52.388;9.986;2023-11-19T04:01:12;99900.47;;;7.42;100.00
77583;BME280;66726;52.388;9.986;2023-11-19T04:03:41;99893.97;;;7.45;100.00
77583;BME280;66726;52.388;9.986;2023-11-19T04:06:14;99889.16;;;7.48;100.00
77583;BME280;66726;52.388;9.986;2023-11-19T04:08:42;99888.16;;;7.49;100.00
77583;BME280;66726;52.388;9.986;2023-11-19T04:11:12;99867.53;;;7.51;100.00
77583;BME280;66726;52.388;9.986;2023-11-19T04:13:40;99872.84;;;7.51;100.00
77583;BME280;66726;52.388;9.986;2023-11-19T04:16:08;99877.03;;;7.62;100.00
77583;BME280;66726;52.388;9.986;2023-11-19T04:18:37;99880.53;;;7.62;100.00
77583;BME280;66726;52.388;9.986;2023-11-19T04:21:06;99879.72;;;7.62;100.00
77583;BME280;66726;52.388;9.986;2023-11-19T04:23:36;99893.16;;;7.60;100.00
77583;BME280;66726;52.388;9.986;2023-11-19T04:26:05;99884.19;;;7.61;100.00
77583;BME280;66726;52.388;9.986;2023-11-19T04:28:36;99887.84;;;7.60;100.00
77583;BME280;66726;52.388;9.986;2023-11-19T04:31:04;99881.53;;;7.61;100.00
77583;BME280;66726;52.388;9.986;2023-11-19T04:33:33;99872.72;;;7.69;100.00
77583;BME280;66726;52.388;9.986;2023-11-19T04:36:01;99874.56;;;7.69;100.00
77583;BME280;66726;52.388;9.986;2023-11-19T04:38:30;99887.22;;;7.75;100.00
77583;BME280;66726;52.388;9.986;2023-11-19T04:41:00;99886.91;;;7.70;100.00
77583;BME280;66726;52.388;9.986;2023-11-19T04:43:28;99884.22;;;7.70;100.00
77583;BME280;66726;52.388;9.986;2023-11-19T04:45:56;99880.25;;;7.74;100.00
77583;BME280;66726;52.388;9.986;2023-11-19T04:48:24;99885.06;;;7.78;100.00
77583;BME280;66726;52.388;9.986;2023-11-19T04:50:52;99888.41;;;7.80;100.00
77583;BME280;66726;52.388;9.986;2023-11-19T04:53:21;99875.09;;;7.80;100.00
77583;BME280;66726;52.388;9.986;2023-11-19T04:55:49;99879.91;;;7.85;100.00
77583;BME280;66726;52.388;9.986;2023-11-19T04:58:18;99889.44;;;7.87;100.00
77583;BME280;66726;52.388;9.986;2023-11-19T05:00:46;99891.41;;;7.85;100.00
77583;BME280;66726;52.388;9.986;2023-11-19T05:03:15;99886.44;;;7.90;100.00
77583;BME280;66726;52.388;9.986;2023-11-19T05:05:43;99884.28;;;7.94;100.00
77583;BME280;66726;52.388;9.986;2023-11-19T05:08:11;99879.28;;;7.91;100.00
77583;BME280;66726;52.388;9.986;2023-11-19T05:10:39;99876.94;;;7.96;100.00
77583;BME280;66726;52.388;9.986;2023-11-19T05:13:08;99850.97;;;7.98;100.00
77583;BME280;66726;52.388;9.986;2023-11-19T05:15:38;99850.63;;;8.09;100.00
77583;BME280;66726;52.388;9.986;2023-11-19T05:18:06;99849.16;;;8.14;100.00
77583;BME280;66726;52.388;9.986;2023-11-19T05:20:35;99849.31;;;8.21;100.00
77583;BME280;66726;52.388;9.986;2023-11-19T05:23:03;99840.81;;;8.18;100.00
77583;BME280;66726;52.388;9.986;2023-11-19T05:25:32;99842.66;;;8.17;100.00
77583;BME280;66726;52.388;9.986;2023-11-19T05:28:00;99849.31;;;8.21;100.00
77583;BME280;66726;52.388;9.986;2023-11-19T05:30:28;99841.81;;;8.25;100.00
77583;BME280;66726;52.388;9.986;2023-11-19T05:32:57;99836.50;;;8.33;100.00
77583;BME280;66726;52.388;9.986;2023-11-19T05:35:26;99841.69;;;8.42;100.00
77583;BME280;66726;52.388;9.986;2023-11-19T05:37:54;99845.84;;;8.45;100.00
77583;BME280;66726;52.388;9.986;2023-11-19T05:40:23;99842.31;;;8.52;100.00
77583;BME280;66726;52.388;9.986;2023-11-19T05:42:51;99842.47;;;8.51;100.00
77583;BME280;66726;52.388;9.986;2023-11-19T05:45:19;99850.19;;;8.46;100.00
77583;BME280;66726;52.388;9.986;2023-11-19T05:47:47;99848.00;;;8.41;100.00
77583;BME280;66726;52.388;9.986;2023-11-19T05:50:17;99843.16;;;8.37;100.00
77583;BME280;66726;52.388;9.986;2023-11-19T05:52:46;99852.66;;;8.39;100.00
77583;BME280;66726;52.388;9.986;2023-11-19T05:55:15;99852.00;;;8.45;100.00
77583;BME280;66726;52.388;9.986;2023-11-19T05:57:43;99842.97;;;8.46;100.00
77583;BME280;66726;52.388;9.986;2023-11-19T06:00:14;99836.00;;;8.45;100.00
77583;BME280;66726;52.388;9.986;2023-11-19T06:02:43;99845.00;;;8.44;100.00
77583;BME280;66726;52.388;9.986;2023-11-19T06:05:12;99846.31;;;8.48;100.00
77583;BME280;66726;52.388;9.986;2023-11-19T06:07:42;99843.97;;;8.53;100.00
77583;BME280;66726;52.388;9.986;2023-11-19T06:10:10;99842.31;;;8.52;100.00
77583;BME280;66726;52.388;9.986;2023-11-19T06:12:41;99830.63;;;8.53;100.00
77583;BME280;66726;52.388;9.986;2023-11-19T06:15:10;99833.31;;;8.53;100.00
77583;BME280;66726;52.388;9.986;2023-11-19T06:17:39;99832.31;;;8.54;100.00
77583;BME280;66726;52.388;9.986;2023-11-19T06:20:08;99838.47;;;8.55;100.00
77583;BME280;66726;52.388;9.986;2023-11-19T06:22:39;99834.31;;;8.52;100.00
77583;BME280;66726;52.388;9.986;2023-11-19T06:25:10;99841.31;;;8.53;100.00
77583;BME280;66726;52.388;9.986;2023-11-19T06:27:39;99850.31;;;8.60;100.00
77583;BME280;66726;52.388;9.986;2023-11-19T06:30:08;99848.97;;;8.56;100.00
77583;BME280;66726;52.388;9.986;2023-11-19T06:32:37;99835.31;;;8.59;100.00
77583;BME280;66726;52.388;9.986;2023-11-19T06:35:06;99848.66;;;8.59;100.00
77583;BME280;66726;52.388;9.986;2023-11-19T06:37:37;99853.47;;;8.64;100.00
77583;BME280;66726;52.388;9.986;2023-11-19T06:40:08;99846.94;;;8.66;100.00
77583;BME280;66726;52.388;9.986;2023-11-19T06:42:38;99859.97;;;8.70;100.00
77583;BME280;66726;52.388;9.986;2023-11-19T06:45:07;99855.44;;;8.70;100.00
77583;BME280;66726;52.388;9.986;2023-11-19T06:47:36;99856.44;;;8.77;100.00
77583;BME280;66726;52.388;9.986;2023-11-19T06:50:06;99853.59;;;8.79;100.00
77583;BME280;66726;52.388;9.986;2023-11-19T06:52:36;99855.94;;;8.90;100.00
77583;BME280;66726;52.388;9.986;2023-11-19T06:55:05;99862.09;;;8.90;100.00
77583;BME280;66726;52.388;9.986;2023-11-19T06:57:36;99864.25;;;8.95;100.00
77583;BME280;66726;52.388;9.986;2023-11-19T07:00:06;99864.72;;;9.06;100.00
77583;BME280;66726;52.388;9.986;2023-11-19T07:02:35;99869.38;;;9.12;100.00
77583;BME280;66726;52.388;9.986;2023-11-19T07:05:05;99874.84;;;9.11;100.00
77583;BME280;66726;52.388;9.986;2023-11-19T07:07:33;99873.84;;;9.20;100.00
77583;BME280;66726;52.388;9.986;2023-11-19T07:10:02;99870.47;;;9.26;100.00
77583;BME280;66726;52.388;9.986;2023-11-19T07:12:31;99873.63;;;9.30;100.00
77583;BME280;66726;52.388;9.986;2023-11-19T07:15:01;99873.06;;;9.42;100.00
77583;BME280;66726;52.388;9.986;2023-11-19T07:17:30;99883.81;;;9.34;100.00
77583;BME280;66726;52.388;9.986;2023-11-19T07:19:58;99888.59;;;9.47;100.00
77583;BME280;66726;52.388;9.986;2023-11-19T07:22:27;99896.44;;;9.48;100.00
77583;BME280;66726;52.388;9.986;2023-11-19T07:24:57;99890.22;;;9.56;100.00
77583;BME280;66726;52.388;9.986;2023-11-19T07:27:25;99886.66;;;9.63;100.00
77583;BME280;66726;52.388;9.986;2023-11-19T07:29:54;99898.03;;;9.65;100.00
77583;BME280;66726;52.388;9.986;2023-11-19T07:32:24;99899.03;;;9.64;100.00
77583;BME280;66726;52.388;9.986;2023-11-19T07:34:52;99913.72;;;9.68;100.00
77583;BME280;66726;52.388;9.986;2023-11-19T07:37:20;99915.06;;;9.64;100.00
77583;BME280;66726;52.388;9.986;2023-11-19T07:39:49;99919.34;;;9.74;100.00
77583;BME280;66726;52.388;9.986;2023-11-19T07:42:17;99915.19;;;9.79;100.00
77583;BME280;66726;52.388;9.986;2023-11-19T07:44:46;99909.75;;;9.87;100.00
77583;BME280;66726;52.388;9.986;2023-11-19T07:47:14;99916.66;;;9.82;100.00
77583;BME280;66726;52.388;9.986;2023-11-19T07:49:44;99913.63;;;9.85;100.00
77583;BME280;66726;52.388;9.986;2023-11-19T07:52:12;99918.81;;;9.86;100.00
77583;BME280;66726;52.388;9.986;2023-11-19T07:54:43;99906.22;;;9.95;100.00
77583;BME280;66726;52.388;9.986;2023-11-19T07:57:12;99918.59;;;9.96;100.00
77583;BME280;66726;52.388;9.986;2023-11-19T07:59:40;99920.53;;;10.02;100.00
77583;BME280;66726;52.388;9.986;2023-11-19T08:02:09;99911.53;;;10.03;100.00
77583;BME280;66726;52.388;9.986;2023-11-19T08:04:37;99915.47;;;10.07;100.00
77583;BME280;66726;52.388;9.986;2023-11-19T08:07:08;99920.03;;;10.06;100.00
77583;BME280;66726;52.388;9.986;2023-11-19T08:09:37;99918.16;;;10.15;100.00
77583;BME280;66726;52.388;9.986;2023-11-19T08:12:06;99925.66;;;10.20;100.00
77583;BME280;66726;52.388;9.986;2023-11-19T08:14:35;99926.84;;;10.17;100.00
77583;BME280;66726;52.388;9.986;2023-11-19T08:17:04;99924.81;;;10.19;100.00
77583;BME280;66726;52.388;9.986;2023-11-19T08:19:33;99923.13;;;10.18;100.00
77583;BME280;66726;52.388;9.986;2023-11-19T08:22:01;99927.00;;;10.15;100.00
77583;BME280;66726;52.388;9.986;2023-11-19T08:24:31;99927.00;;;10.15;100.00
77583;BME280;66726;52.388;9.986;2023-11-19T08:27:00;99933.78;;;10.26;100.00
77583;BME280;66726;52.388;9.986;2023-11-19T08:29:29;99934.91;;;10.32;100.00
77583;BME280;66726;52.388;9.986;2023-11-19T08:32:00;99931.72;;;10.36;100.00
77583;BME280;66726;52.388;9.986;2023-11-19T08:34:29;99932.91;;;10.34;100.00
77583;BME280;66726;52.388;9.986;2023-11-19T08:36:58;99932.44;;;10.30;100.00
77583;BME280;66726;52.388;9.986;2023-11-19T08:39:26;99939.78;;;10.28;100.00
77583;BME280;66726;52.388;9.986;2023-11-19T08:41:56;99937.78;;;10.30;100.00
77583;BME280;66726;52.388;9.986;2023-11-19T08:44:24;99943.50;;;10.27;100.00
77583;BME280;66726;52.388;9.986;2023-11-19T08:46:53;99935.16;;;10.22;100.00
77583;BME280;66726;52.388;9.986;2023-11-19T08:49:21;99939.19;;;10.18;100.00
77583;BME280;66726;52.388;9.986;2023-11-19T08:51:50;99937.53;;;10.17;100.00
77583;BME280;66726;52.388;9.986;2023-11-19T08:54:18;99946.84;;;10.21;100.00
77583;BME280;66726;52.388;9.986;2023-11-19T08:56:47;99944.19;;;10.21;100.00
77583;BME280;66726;52.388;9.986;2023-11-19T08:59:16;99934.50;;;10.20;100.00
77583;BME280;66726;52.388;9.986;2023-11-19T09:01:46;99930.81;;;10.21;100.00
77583;BME280;66726;52.388;9.986;2023-11-19T09:04:14;99937.31;;;10.27;99.04
77583;BME280;66726;52.388;9.986;2023-11-19T09:06:43;99944.13;;;10.29;99.51
77583;BME280;66726;52.388;9.986;2023-11-19T09:09:11;99954.00;;;10.29;99.17
77583;BME280;66726;52.388;9.986;2023-11-19T09:11:39;99961.31;;;10.35;98.49
77583;BME280;66726;52.388;9.986;2023-11-19T09:14:08;99958.47;;;10.36;97.87
77583;BME280;66726;52.388;9.986;2023-11-19T09:16:37;99962.81;;;10.37;98.73
77583;BME280;66726;52.388;9.986;2023-11-19T09:19:05;99969.47;;;10.41;98.40
77583;BME280;66726;52.388;9.986;2023-11-19T09:21:34;99959.59;;;10.42;98.88
77583;BME280;66726;52.388;9.986;2023-11-19T09:24:05;99965.13;;;10.40;99.56
77583;BME280;66726;52.388;9.986;2023-11-19T09:26:34;99962.28;;;10.42;97.87
77583;BME280;66726;52.388;9.986;2023-11-19T09:29:03;99965.78;;;10.42;97.42
77583;BME280;66726;52.388;9.986;2023-11-19T09:31:31;99972.13;;;10.41;97.54
77583;BME280;66726;52.388;9.986;2023-11-19T09:34:01;99980.00;;;10.43;97.49
77583;BME280;66726;52.388;9.986;2023-11-19T09:36:29;99979.47;;;10.47;96.58
77583;BME280;66726;52.388;9.986;2023-11-19T09:38:58;99978.44;;;10.48;96.54
77583;BME280;66726;52.388;9.986;2023-11-19T09:41:27;99984.81;;;10.47;96.30
77583;BME280;66726;52.388;9.986;2023-11-19T09:43:56;99986.06;;;10.59;95.16
77583;BME280;66726;52.388;9.986;2023-11-19T09:46:26;99985.69;;;10.62;95.35
77583;BME280;66726;52.388;9.986;2023-11-19T09:48:56;99978.41;;;10.56;96.84
77583;BME280;66726;52.388;9.986;2023-11-19T09:51:28;99988.84;;;10.66;95.16
77583;BME280;66726;52.388;9.986;2023-11-19T09:53:56;99986.19;;;10.66;95.12
77583;BME280;66726;52.388;9.986;2023-11-19T09:56:25;99980.00;;;10.65;95.60
77583;BME280;66726;52.388;9.986;2023-11-19T09:58:54;99981.66;;;10.66;96.21
77583;BME280;66726;52.388;9.986;2023-11-19T10:01:24;99985.34;;;10.65;95.36
77583;BME280;66726;52.388;9.986;2023-11-19T10:03:56;99975.59;;;10.73;94.43
77583;BME280;66726;52.388;9.986;2023-11-19T10:06:27;99979.94;;;10.74;93.96
77583;BME280;66726;52.388;9.986;2023-11-19T10:08:55;99984.09;;;10.76;93.14
77583;BME280;66726;52.388;9.986;2023-11-19T10:11:24;99975.22;;;10.76;93.32
77583;BME280;66726;52.388;9.986;2023-11-19T10:13:53;99968.69;;;10.78;92.84
77583;BME280;66726;52.388;9.986;2023-11-19T10:16:28;99973.31;;;10.84;92.87
77583;BME280;66726;52.388;9.986;2023-11-19T10:18:58;99984.03;;;10.84;91.56
77583;BME280;66726;52.388;9.986;2023-11-19T10:21:29;99988.91;;;10.81;92.77
77583;BME280;66726;52.388;9.986;2023-11-19T10:24:00;99980.03;;;10.80;92.10
77583;BME280;66726;52.388;9.986;2023-11-19T10:26:28;99987.91;;;10.82;91.89
77583;BME280;66726;52.388;9.986;2023-11-19T10:28:56;99991.06;;;10.85;90.96
77583;BME280;66726;52.388;9.986;2023-11-19T10:31:25;99983.56;;;10.81;90.43
77583;BME280;66726;52.388;9.986;2023-11-19T10:33:54;99979.63;;;10.91;90.16
77583;BME280;66726;52.388;9.986;2023-11-19T10:36:22;99978.34;;;11.02;89.52
77583;BME280;66726;52.388;9.986;2023-11-19T10:38:55;99981.88;;;11.02;88.18
77583;BME280;66726;52.388;9.986;2023-11-19T10:41:27;99994.22;;;11.03;89.15
77583;BME280;66726;52.388;9.986;2023-11-19T10:43:55;99977.16;;;11.04;88.69
77583;BME280;66726;52.388;9.986;2023-11-19T10:46:37;99984.72;;;11.01;90.42
77583;BME280;66726;52.388;9.986;2023-11-19T10:49:07;99985.03;;;11.06;88.86
77583;BME280;66726;52.388;9.986;2023-11-19T10:51:35;99980.66;;;11.05;89.40
77583;BME280;66726;52.388;9.986;2023-11-19T10:54:06;99983.63;;;11.10;89.12
77583;BME280;66726;52.388;9.986;2023-11-19T10:56:35;99984.34;;;11.04;89.71
77583;BME280;66726;52.388;9.986;2023-11-19T10:59:04;99996.75;;;11.05;88.75
77583;BME280;66726;52.388;9.986;2023-11-19T11:01:53;99982.50;;;11.04;88.56
77583;BME280;66726;52.388;9.986;2023-11-19T11:04:24;99981.69;;;11.04;88.18
77583;BME280;66726;52.388;9.986;2023-11-19T11:06:55;99984.81;;;11.07;87.45
77583;BME280;66726;52.388;9.986;2023-11-19T11:09:27;99978.00;;;11.05;87.57
77583;BME280;66726;52.388;9.986;2023-11-19T11:11:56;99988.72;;;11.05;87.48
77583;BME280;66726;52.388;9.986;2023-11-19T11:14:27;99968.28;;;11.04;87.43
77583;BME280;66726;52.388;9.986;2023-11-19T11:16:57;99973.84;;;11.17;86.20
77583;BME280;66726;52.388;9.986;2023-11-19T11:19:26;99969.53;;;11.16;87.13
77583;BME280;66726;52.388;9.986;2023-11-19T11:21:56;99975.50;;;11.18;87.38
77583;BME280;66726;52.388;9.986;2023-11-19T11:25:16;99987.44;;;11.15;87.92
77583;BME280;66726;52.388;9.986;2023-11-19T11:28:26;99980.50;;;11.21;87.89
77583;BME280;66726;52.388;9.986;2023-11-19T11:31:15;99970.72;;;11.28;86.80
77583;BME280;66726;52.388;9.986;2023-11-19T11:34:29;99971.28;;;11.38;87.56
77583;BME280;66726;52.388;9.986;2023-11-19T11:37:13;99975.44;;;11.41;88.16
77583;BME280;66726;52.388;9.986;2023-11-19T11:39:46;99969.81;;;11.50;86.49
77583;BME280;66726;52.388;9.986;2023-11-19T11:42:35;99979.34;;;11.53;87.19
77583;BME280;66726;52.388;9.986;2023-11-19T11:45:06;99979.69;;;11.64;86.75
77583;BME280;66726;52.388;9.986;2023-11-19T11:48:11;99980.81;;;11.70;86.18
77583;BME280;66726;52.388;9.986;2023-11-19T11:51:04;99973.63;;;11.71;84.21
77583;BME280;66726;52.388;9.986;2023-11-19T11:53:35;99973.50;;;11.79;84.14
77583;BME280;66726;52.388;9.986;2023-11-19T11:56:05;99976.41;;;11.77;83.90
77583;BME280;66726;52.388;9.986;2023-11-19T11:58:37;99973.91;;;11.76;84.88
77583;BME280;66726;52.388;9.986;2023-11-19T12:01:06;99987.38;;;11.67;85.35
77583;BME280;66726;52.388;9.986;2023-11-19T12:03:34;99993.09;;;11.64;85.35
77583;BME280;66726;52.388;9.986;2023-11-19T12:06:04;99965.81;;;11.61;84.24
77583;BME280;66726;52.388;9.986;2023-11-19T12:08:35;99976.53;;;11.61;83.93
77583;BME280;66726;52.388;9.986;2023-11-19T12:11:19;99976.75;;;11.59;84.31
77583;BME280;66726;52.388;9.986;2023-11-19T12:13:56;99967.41;;;11.55;84.60
77583;BME280;66726;52.388;9.986;2023-11-19T12:16:26;99978.13;;;11.55;85.13
77583;BME280;66726;52.388;9.986;2023-11-19T12:18:56;99975.81;;;11.52;86.00
77583;BME280;66726;52.388;9.986;2023-11-19T12:21:31;99968.16;;;11.49;86.49
77583;BME280;66726;52.388;9.986;2023-11-19T12:24:01;99974.34;;;11.50;85.96
77583;BME280;66726;52.388;9.986;2023-11-19T12:26:38;99970.63;;;11.51;85.41
77583;BME280;66726;52.388;9.986;2023-11-19T12:29:08;99975.81;;;11.52;84.66
77583;BME280;66726;52.388;9.986;2023-11-19T12:31:37;99962.72;;;11.57;84.41
77583;BME280;66726;52.388;9.986;2023-11-19T12:34:08;99965.59;;;11.71;83.96
77583;BME280;66726;52.388;9.986;2023-11-19T12:36:41;99970.59;;;11.74;84.29
77583;BME280;66726;52.388;9.986;2023-11-19T12:39:10;99966.88;;;11.75;83.81
77583;BME280;66726;52.388;9.986;2023-11-19T12:41:53;99977.63;;;11.75;84.00
77583;BME280;66726;52.388;9.986;2023-11-19T12:44:23;99965.59;;;11.71;84.35
77583;BME280;66726;52.388;9.986;2023-11-19T12:47:02;99966.22;;;11.73;83.60
77583;BME280;66726;52.388;9.986;2023-11-19T12:49:30;99973.91;;;11.76;83.16
77583;BME280;66726;52.388;9.986;2023-11-19T12:51:59;99959.84;;;11.74;83.32
77583;BME280;66726;52.388;9.986;2023-11-19T12:54:35;99973.63;;;11.71;83.97
77583;BME280;66726;52.388;9.986;2023-11-19T12:57:05;99985.00;;;11.73;82.28
77583;BME280;66726;52.388;9.986;2023-11-19T12:59:34;99978.63;;;11.74;82.07
77583;BME280;66726;52.388;9.986;2023-11-19T13:02:02;99978.31;;;11.68;82.78
77583;BME280;66726;52.388;9.986;2023-11-19T13:04:33;99978.03;;;11.63;84.10
77583;BME280;66726;52.388;9.986;2023-11-19T13:07:02;99970.19;;;11.62;83.80
77583;BME280;66726;52.388;9.986;2023-11-19T13:09:32;99972.38;;;11.58;84.22
77583;BME280;66726;52.388;9.986;2023-11-19T13:12:13;99959.19;;;11.57;84.46
77583;BME280;66726;52.388;9.986;2023-11-19T13:14:43;99956.69;;;11.55;83.67